»·PEaware :: N26FD KTOA-KRAL

N26FD :: KTOA-KRAL

FLIGHT INFORMATION

Flight Status: Arrived
Operator: Privately registered:
United States
More flights under this callsign
Pilot: Anonymous 30260 (30260)
Aircraft: AERMACCHI WARRIOR
(F260)
More flights by this aircraft type
Origin: KTOA Zamperini
United States
Destination: KRAL Riverside Mun
United States
More flights between these airports :: More routes between these airports
Route: +LIMBO V64 SLI V8 PDZ
File this flight plan on PilotEdge
Remarks: SCTP7
Altitude:
(Current/Filed)
5,000ft
Speed:
(Current/Filed)
167kts
Departed: 22-Oct-20 09:59 AM
Arrived: 22-Oct-20 10:59 AM
Distance/Time
Traveled:
45nm/1:00
Distance/Time
To Go:
Arrived

Flight Plot

Page will automatically refresh every two minutes.


Map Options




Map Legend


Flown Route
Filed Route
Departure Airport
Arrival Airport
Navaid (VOR, NDB)
Fix

Horizontal Profiles

Position Reports

Time Latitude Longitude Heading Altitude Ground
Speed
22-Oct-20 09:37 33.796503 -118.332401 0 107ft 0kts
22-Oct-20 09:38 33.796503 -118.332401 0 107ft 0kts
22-Oct-20 09:39 33.796503 -118.332401 0 107ft 0kts
22-Oct-20 09:40 33.796503 -118.332401 0 107ft 0kts
22-Oct-20 09:41 33.796503 -118.332401 0 107ft 0kts
22-Oct-20 09:42 33.796503 -118.332401 0 107ft 0kts
22-Oct-20 09:43 33.796503 -118.332401 0 107ft 0kts
22-Oct-20 09:44 33.796503 -118.332401 0 107ft 0kts
22-Oct-20 09:45 33.796503 -118.332401 0 107ft 0kts
22-Oct-20 09:46 33.796503 -118.332401 0 107ft 0kts
22-Oct-20 09:47 33.796503 -118.332401 0 107ft 0kts
22-Oct-20 09:48 33.796503 -118.332401 0 107ft 0kts
22-Oct-20 09:49 33.796503 -118.332401 0 107ft 0kts
22-Oct-20 09:50 33.796503 -118.332401 0 107ft 0kts
22-Oct-20 09:51 33.796503 -118.332401 0 107ft 0kts
22-Oct-20 09:52 33.796503 -118.332401 0 107ft 0kts
22-Oct-20 09:54 33.796514 -118.332401 359 107ft 2kts
22-Oct-20 09:55 33.797590 -118.332412 359 103ft 3kts
22-Oct-20 09:56 33.798461 -118.333711 80 102ft 8kts
22-Oct-20 09:57 33.798761 -118.333204 320 101ft 0kts
22-Oct-20 09:58 33.798761 -118.333204 320 101ft 0kts
22-Oct-20 09:59 33.800555 -118.334337 310 98ft 43kts
22-Oct-20 10:00 33.818358 -118.363771 311 1026ft 119kts
22-Oct-20 10:01 33.820286 -118.332349 119 966ft 150kts
22-Oct-20 10:02 33.798675 -118.311065 212 530ft 86kts
22-Oct-20 10:03 33.801565 -118.335848 305 97ft 36kts
22-Oct-20 10:04 33.799206 -118.335641 179 103ft 12kts
22-Oct-20 10:05 33.798700 -118.333212 32 101ft 7kts
22-Oct-20 10:06 33.798804 -118.333228 315 101ft 0kts
22-Oct-20 10:07 33.798804 -118.333228 315 101ft 0kts
22-Oct-20 10:08 33.798804 -118.333228 315 101ft 0kts
22-Oct-20 10:09 33.798804 -118.333228 315 101ft 0kts
22-Oct-20 10:10 33.798804 -118.333228 315 101ft 0kts
22-Oct-20 10:11 33.798804 -118.333228 315 101ft 0kts
22-Oct-20 10:12 33.798804 -118.333228 315 101ft 0kts
22-Oct-20 10:12 33.798804 -118.333228 315 101ft 0kts
22-Oct-20 10:14 33.798804 -118.333228 315 101ft 0kts
22-Oct-20 10:14 33.799063 -118.333323 33 100ft 0kts
22-Oct-20 10:15 33.799740 -118.333121 308 99ft 0kts
22-Oct-20 10:16 33.813155 -118.352613 310 958ft 99kts
22-Oct-20 10:17 33.831119 -118.380524 308 2639ft 101kts
22-Oct-20 10:18 33.832521 -118.412947 255 4156ft 100kts
22-Oct-20 10:19 33.817737 -118.441683 188 5132ft 129kts
22-Oct-20 10:20 33.771923 -118.446300 181 4874ft 171kts
22-Oct-20 10:21 33.745139 -118.418007 65 4917ft 172kts
22-Oct-20 10:22 33.766022 -118.368759 77 4955ft 175kts
22-Oct-20 10:23 33.771978 -118.313077 88 4908ft 171kts
22-Oct-20 10:24 33.772938 -118.257937 85 4939ft 167kts
22-Oct-20 10:25 33.775536 -118.203278 84 4937ft 169kts
22-Oct-20 10:26 33.778672 -118.148181 83 4935ft 170kts
22-Oct-20 10:27 33.781981 -118.092663 85 4933ft 171kts
22-Oct-20 10:28 33.786621 -118.037405 62 4936ft 170kts
22-Oct-20 10:29 33.801662 -117.990969 77 4934ft 171kts
22-Oct-20 10:30 33.810377 -117.950980 71 4935ft 170kts
22-Oct-20 10:31 33.820345 -117.911144 71 4936ft 169kts
22-Oct-20 10:32 33.829322 -117.875218 71 4936ft 169kts
22-Oct-20 10:33 33.838234 -117.839541 71 4937ft 169kts
22-Oct-20 10:34 33.852803 -117.781374 71 4939ft 169kts
22-Oct-20 10:35 33.865417 -117.731500 71 4942ft 171kts
22-Oct-20 10:36 33.881085 -117.672587 70 4928ft 172kts
22-Oct-20 10:37 33.895852 -117.618652 70 4930ft 171kts
22-Oct-20 10:38 33.909836 -117.567465 71 4932ft 172kts
22-Oct-20 10:39 33.920026 -117.518365 90 4922ft 173kts
22-Oct-20 10:40 33.912802 -117.472464 100 4932ft 173kts
22-Oct-20 10:41 33.904023 -117.425127 100 4933ft 173kts
22-Oct-20 10:42 33.895505 -117.376933 100 4934ft 173kts
22-Oct-20 10:43 33.886458 -117.325726 101 4935ft 173kts
22-Oct-20 10:44 33.876485 -117.269541 101 4937ft 173kts
22-Oct-20 10:45 33.863999 -117.200007 101 4941ft 173kts
22-Oct-20 10:46 33.846240 -117.103532 100 4945ft 172kts
22-Oct-20 10:47 33.866546 -117.061090 341 4947ft 165kts
22-Oct-20 10:48 33.906586 -117.097843 305 4435ft 174kts
22-Oct-20 10:49 33.903933 -117.155253 260 3896ft 149kts
22-Oct-20 10:50 33.902447 -117.190387 287 3932ft 124kts
22-Oct-20 10:51 33.906811 -117.217319 278 4011ft 118kts
22-Oct-20 10:52 33.912125 -117.245897 287 3963ft 127kts
22-Oct-20 10:53 33.918673 -117.270259 285 3530ft 113kts
22-Oct-20 10:54 33.922737 -117.293408 281 3169ft 99kts
22-Oct-20 10:55 33.933306 -117.343924 289 2483ft 91kts
22-Oct-20 10:56 33.941855 -117.390222 284 1547ft 90kts
22-Oct-20 10:57 33.948402 -117.423706 282 1056ft 88kts
22-Oct-20 10:58 33.952135 -117.443514 223 784ft 14kts
22-Oct-20 10:59 33.951143 -117.443890 237 779ft 8kts
22-Oct-20 11:00 33.950935 -117.444494 289 775ft 0kts

Navigation Log

Ident Type
Flight plan parsing failed, navigation log unavailable